Westmont, Illinois
Current Conditions -  °F | °C
As of 4:53 PM on Monday 24 Nov 2014 (Local Time) from KMDW Reporting Station
Overcast Overcast  
Wind Chill: 16°   Ceiling: 1300
Heat Index: 31°   Visibility: 10mi
Dew Point: 25°   Wind: 29mph
Humidity: 79%   Direction: 250°WSW
Pressure: 29.61"   Gusts: 39mph
Location:  41.8°N, 87.98°W
Report Text: KMDW 242253Z 25025G34KT 10SM BKN013 OVC019 M01/M04 A2961 RMK AO2 PK WND 25038/2158 SNE28 SLP032 P0000 T10061039
Loading
Personal Weather Stations






























Interactive Weather Map New forecast layout! Learn more

10-Day Weather Forecast

Advertisements
Track Severe Weather on mobile